sensor_id;sensor_type;location;lat;lon;timestamp;P1;durP1;ratioP1;P2;durP2;ratioP2
2035;SDS011;23642;42.658;23.350;2023-03-03T00:00:45;75.13;;;70.13;;
2035;SDS011;23642;42.658;23.350;2023-03-03T00:03:14;76.70;;;71.60;;
2035;SDS011;23642;42.658;23.350;2023-03-03T00:05:43;76.20;;;71.10;;
2035;SDS011;23642;42.658;23.350;2023-03-03T00:08:11;76.27;;;71.17;;
2035;SDS011;23642;42.658;23.350;2023-03-03T00:10:38;75.00;;;70.10;;
2035;SDS011;23642;42.658;23.350;2023-03-03T00:13:11;76.13;;;71.13;;
2035;SDS011;23642;42.658;23.350;2023-03-03T00:15:40;75.97;;;70.90;;
2035;SDS011;23642;42.658;23.350;2023-03-03T00:18:11;75.83;;;70.73;;
2035;SDS011;23642;42.658;23.350;2023-03-03T00:20:46;74.50;;;69.60;;
2035;SDS011;23642;42.658;23.350;2023-03-03T00:23:18;75.80;;;70.70;;
2035;SDS011;23642;42.658;23.350;2023-03-03T00:25:49;75.40;;;70.43;;
2035;SDS011;23642;42.658;23.350;2023-03-03T00:28:19;73.20;;;68.40;;
2035;SDS011;23642;42.658;23.350;2023-03-03T00:30:51;77.13;;;72.03;;
2035;SDS011;23642;42.658;23.350;2023-03-03T00:33:29;77.50;;;72.30;;
2035;SDS011;23642;42.658;23.350;2023-03-03T00:36:05;76.63;;;71.60;;
2035;SDS011;23642;42.658;23.350;2023-03-03T00:38:49;77.83;;;72.73;;
2035;SDS011;23642;42.658;23.350;2023-03-03T00:41:15;75.87;;;70.87;;
2035;SDS011;23642;42.658;23.350;2023-03-03T00:43:48;76.07;;;70.97;;
2035;SDS011;23642;42.658;23.350;2023-03-03T00:46:16;77.57;;;72.30;;
2035;SDS011;23642;42.658;23.350;2023-03-03T00:48:44;77.20;;;72.00;;
2035;SDS011;23642;42.658;23.350;2023-03-03T00:51:18;75.43;;;70.33;;
2035;SDS011;23642;42.658;23.350;2023-03-03T00:53:54;78.13;;;72.83;;
2035;SDS011;23642;42.658;23.350;2023-03-03T00:56:21;76.80;;;71.80;;
2035;SDS011;23642;42.658;23.350;2023-03-03T00:58:49;76.73;;;71.53;;
2035;SDS011;23642;42.658;23.350;2023-03-03T01:01:16;76.87;;;71.70;;
2035;SDS011;23642;42.658;23.350;2023-03-03T01:03:43;74.40;;;69.30;;
2035;SDS011;23642;42.658;23.350;2023-03-03T01:06:10;76.03;;;71.00;;
2035;SDS011;23642;42.658;23.350;2023-03-03T01:08:38;76.30;;;71.23;;
2035;SDS011;23642;42.658;23.350;2023-03-03T01:11:07;75.43;;;70.33;;
2035;SDS011;23642;42.658;23.350;2023-03-03T01:13:39;74.20;;;69.20;;
2035;SDS011;23642;42.658;23.350;2023-03-03T01:16:07;75.63;;;70.63;;
2035;SDS011;23642;42.658;23.350;2023-03-03T01:18:34;75.67;;;70.57;;
2035;SDS011;23642;42.658;23.350;2023-03-03T01:21:02;77.40;;;72.20;;
2035;SDS011;23642;42.658;23.350;2023-03-03T01:23:29;77.10;;;71.90;;
2035;SDS011;23642;42.658;23.350;2023-03-03T01:25:56;76.33;;;71.23;;
2035;SDS011;23642;42.658;23.350;2023-03-03T01:28:24;74.23;;;69.23;;
2035;SDS011;23642;42.658;23.350;2023-03-03T01:30:51;75.60;;;70.40;;
2035;SDS011;23642;42.658;23.350;2023-03-03T01:33:19;77.47;;;72.17;;
2035;SDS011;23642;42.658;23.350;2023-03-03T01:35:46;73.77;;;68.97;;
2035;SDS011;23642;42.658;23.350;2023-03-03T01:38:13;74.07;;;69.07;;
2035;SDS011;23642;42.658;23.350;2023-03-03T01:40:41;76.53;;;71.27;;
2035;SDS011;23642;42.658;23.350;2023-03-03T01:43:10;75.20;;;69.60;;
2035;SDS011;23642;42.658;23.350;2023-03-03T01:45:43;76.73;;;71.53;;
2035;SDS011;23642;42.658;23.350;2023-03-03T01:48:56;74.73;;;69.70;;
2035;SDS011;23642;42.658;23.350;2023-03-03T01:51:28;73.53;;;68.43;;
2035;SDS011;23642;42.658;23.350;2023-03-03T01:53:57;71.87;;;66.60;;
2035;SDS011;23642;42.658;23.350;2023-03-03T01:56:26;72.97;;;68.07;;
2035;SDS011;23642;42.658;23.350;2023-03-03T01:58:56;74.67;;;69.47;;
2035;SDS011;23642;42.658;23.350;2023-03-03T02:01:28;72.30;;;67.50;;
2035;SDS011;23642;42.658;23.350;2023-03-03T02:03:57;71.93;;;66.93;;
2035;SDS011;23642;42.658;23.350;2023-03-03T02:06:25;71.90;;;67.10;;
2035;SDS011;23642;42.658;23.350;2023-03-03T02:08:56;72.50;;;67.50;;
2035;SDS011;23642;42.658;23.350;2023-03-03T02:11:27;73.47;;;68.53;;
2035;SDS011;23642;42.658;23.350;2023-03-03T02:13:57;73.70;;;68.80;;
2035;SDS011;23642;42.658;23.350;2023-03-03T02:16:24;74.67;;;69.57;;
2035;SDS011;23642;42.658;23.350;2023-03-03T02:18:52;74.33;;;69.53;;
2035;SDS011;23642;42.658;23.350;2023-03-03T02:21:19;74.47;;;69.57;;
2035;SDS011;23642;42.658;23.350;2023-03-03T02:23:49;75.00;;;70.00;;
2035;SDS011;23642;42.658;23.350;2023-03-03T02:26:20;73.83;;;68.83;;
2035;SDS011;23642;42.658;23.350;2023-03-03T02:28:49;74.03;;;69.03;;
2035;SDS011;23642;42.658;23.350;2023-03-03T02:31:17;77.50;;;72.20;;
2035;SDS011;23642;42.658;23.350;2023-03-03T02:33:46;76.23;;;70.93;;
2035;SDS011;23642;42.658;23.350;2023-03-03T02:36:15;75.00;;;69.90;;
2035;SDS011;23642;42.658;23.350;2023-03-03T02:38:44;77.93;;;72.73;;
2035;SDS011;23642;42.658;23.350;2023-03-03T02:41:23;78.40;;;73.10;;
2035;SDS011;23642;42.658;23.350;2023-03-03T02:43:55;79.37;;;74.17;;
2035;SDS011;23642;42.658;23.350;2023-03-03T02:46:26;79.23;;;73.93;;
2035;SDS011;23642;42.658;23.350;2023-03-03T02:48:54;76.37;;;71.17;;
2035;SDS011;23642;42.658;23.350;2023-03-03T02:51:21;79.30;;;74.10;;
2035;SDS011;23642;42.658;23.350;2023-03-03T02:53:48;78.40;;;73.13;;
2035;SDS011;23642;42.658;23.350;2023-03-03T02:56:16;79.90;;;74.50;;
2035;SDS011;23642;42.658;23.350;2023-03-03T02:58:44;78.93;;;73.43;;
2035;SDS011;23642;42.658;23.350;2023-03-03T03:01:11;82.17;;;76.47;;
2035;SDS011;23642;42.658;23.350;2023-03-03T03:03:38;80.13;;;74.63;;
2035;SDS011;23642;42.658;23.350;2023-03-03T03:06:05;78.37;;;73.07;;
2035;SDS011;23642;42.658;23.350;2023-03-03T03:08:35;79.13;;;73.40;;
2035;SDS011;23642;42.658;23.350;2023-03-03T03:11:02;80.30;;;74.70;;
2035;SDS011;23642;42.658;23.350;2023-03-03T03:13:30;79.97;;;74.37;;
2035;SDS011;23642;42.658;23.350;2023-03-03T03:15:59;80.40;;;74.80;;
2035;SDS011;23642;42.658;23.350;2023-03-03T03:18:26;80.17;;;74.77;;
2035;SDS011;23642;42.658;23.350;2023-03-03T03:20:53;79.80;;;74.30;;
2035;SDS011;23642;42.658;23.350;2023-03-03T03:23:20;80.37;;;74.87;;
2035;SDS011;23642;42.658;23.350;2023-03-03T03:25:47;79.27;;;73.93;;
2035;SDS011;23642;42.658;23.350;2023-03-03T03:28:14;78.67;;;73.23;;
2035;SDS011;23642;42.658;23.350;2023-03-03T03:30:49;78.90;;;73.50;;
2035;SDS011;23642;42.658;23.350;2023-03-03T03:33:18;80.80;;;75.40;;
2035;SDS011;23642;42.658;23.350;2023-03-03T03:35:45;82.67;;;76.97;;
2035;SDS011;23642;42.658;23.350;2023-03-03T03:38:12;80.63;;;75.23;;
2035;SDS011;23642;42.658;23.350;2023-03-03T03:40:40;81.30;;;75.47;;
2035;SDS011;23642;42.658;23.350;2023-03-03T03:43:07;80.20;;;74.80;;
2035;SDS011;23642;42.658;23.350;2023-03-03T03:45:34;81.30;;;75.60;;
2035;SDS011;23642;42.658;23.350;2023-03-03T03:48:01;78.20;;;72.90;;
2035;SDS011;23642;42.658;23.350;2023-03-03T03:50:30;78.83;;;73.53;;
2035;SDS011;23642;42.658;23.350;2023-03-03T03:52:57;78.67;;;73.07;;
2035;SDS011;23642;42.658;23.350;2023-03-03T03:55:24;77.07;;;71.87;;
2035;SDS011;23642;42.658;23.350;2023-03-03T03:57:51;78.07;;;72.67;;
2035;SDS011;23642;42.658;23.350;2023-03-03T04:00:19;78.57;;;73.07;;
2035;SDS011;23642;42.658;23.350;2023-03-03T04:02:46;80.50;;;75.10;;
2035;SDS011;23642;42.658;23.350;2023-03-03T04:05:13;80.57;;;75.33;;
2035;SDS011;23642;42.658;23.350;2023-03-03T04:07:42;79.50;;;74.17;;
2035;SDS011;23642;42.658;23.350;2023-03-03T04:10:09;78.00;;;72.83;;
2035;SDS011;23642;42.658;23.350;2023-03-03T04:12:36;79.40;;;74.10;;
2035;SDS011;23642;42.658;23.350;2023-03-03T04:15:04;77.43;;;72.30;;
2035;SDS011;23642;42.658;23.350;2023-03-03T04:17:32;79.23;;;73.73;;
2035;SDS011;23642;42.658;23.350;2023-03-03T04:19:59;80.70;;;75.27;;
2035;SDS011;23642;42.658;23.350;2023-03-03T04:22:26;80.40;;;74.70;;
2035;SDS011;23642;42.658;23.350;2023-03-03T04:24:55;80.90;;;75.50;;
2035;SDS011;23642;42.658;23.350;2023-03-03T04:27:21;81.20;;;75.77;;
2035;SDS011;23642;42.658;23.350;2023-03-03T04:29:48;80.00;;;74.57;;
2035;SDS011;23642;42.658;23.350;2023-03-03T04:32:20;80.33;;;74.83;;
2035;SDS011;23642;42.658;23.350;2023-03-03T04:34:48;79.87;;;74.37;;
2035;SDS011;23642;42.658;23.350;2023-03-03T04:37:15;77.47;;;72.30;;
2035;SDS011;23642;42.658;23.350;2023-03-03T04:39:42;77.47;;;72.17;;
2035;SDS011;23642;42.658;23.350;2023-03-03T04:42:10;76.33;;;71.17;;
2035;SDS011;23642;42.658;23.350;2023-03-03T04:44:37;77.93;;;72.30;;
2035;SDS011;23642;42.658;23.350;2023-03-03T04:47:05;78.70;;;73.40;;
2035;SDS011;23642;42.658;23.350;2023-03-03T04:49:32;78.93;;;73.60;;
2035;SDS011;23642;42.658;23.350;2023-03-03T04:51:59;78.93;;;73.60;;
2035;SDS011;23642;42.658;23.350;2023-03-03T04:54:26;78.17;;;72.80;;
2035;SDS011;23642;42.658;23.350;2023-03-03T04:56:53;75.80;;;70.60;;
2035;SDS011;23642;42.658;23.350;2023-03-03T04:59:21;76.20;;;71.00;;
2035;SDS011;23642;42.658;23.350;2023-03-03T05:01:48;78.70;;;73.50;;
2035;SDS011;23642;42.658;23.350;2023-03-03T05:04:15;77.23;;;71.87;;
2035;SDS011;23642;42.658;23.350;2023-03-03T05:06:42;74.83;;;69.70;;
2035;SDS011;23642;42.658;23.350;2023-03-03T05:09:09;71.70;;;66.83;;
2035;SDS011;23642;42.658;23.350;2023-03-03T05:11:36;73.37;;;68.17;;
2035;SDS011;23642;42.658;23.350;2023-03-03T05:14:03;73.90;;;68.83;;
2035;SDS011;23642;42.658;23.350;2023-03-03T05:16:33;75.20;;;70.00;;
2035;SDS011;23642;42.658;23.350;2023-03-03T05:19:00;79.00;;;73.50;;
2035;SDS011;23642;42.658;23.350;2023-03-03T05:21:27;77.83;;;72.53;;
2035;SDS011;23642;42.658;23.350;2023-03-03T05:23:53;77.07;;;71.90;;
2035;SDS011;23642;42.658;23.350;2023-03-03T05:26:20;76.80;;;71.67;;
2035;SDS011;23642;42.658;23.350;2023-03-03T05:28:50;76.87;;;71.33;;
2035;SDS011;23642;42.658;23.350;2023-03-03T05:31:17;77.70;;;72.47;;
2035;SDS011;23642;42.658;23.350;2023-03-03T05:33:45;77.43;;;72.17;;
2035;SDS011;23642;42.658;23.350;2023-03-03T05:36:11;78.90;;;73.60;;
2035;SDS011;23642;42.658;23.350;2023-03-03T05:38:38;76.13;;;70.67;;
2035;SDS011;23642;42.658;23.350;2023-03-03T05:41:05;77.67;;;72.40;;
2035;SDS011;23642;42.658;23.350;2023-03-03T05:43:31;79.07;;;73.70;;
2035;SDS011;23642;42.658;23.350;2023-03-03T05:45:58;78.73;;;73.27;;
2035;SDS011;23642;42.658;23.350;2023-03-03T05:48:25;78.00;;;72.47;;
2035;SDS011;23642;42.658;23.350;2023-03-03T05:50:56;80.30;;;74.53;;
2035;SDS011;23642;42.658;23.350;2023-03-03T05:53:24;77.83;;;72.23;;
2035;SDS011;23642;42.658;23.350;2023-03-03T05:55:51;78.73;;;73.20;;
2035;SDS011;23642;42.658;23.350;2023-03-03T05:58:18;81.80;;;75.93;;
2035;SDS011;23642;42.658;23.350;2023-03-03T06:00:45;81.40;;;75.60;;
2035;SDS011;23642;42.658;23.350;2023-03-03T06:03:12;83.10;;;77.30;;
2035;SDS011;23642;42.658;23.350;2023-03-03T06:05:39;80.77;;;75.17;;
2035;SDS011;23642;42.658;23.350;2023-03-03T06:08:08;82.70;;;76.70;;
2035;SDS011;23642;42.658;23.350;2023-03-03T06:10:35;81.00;;;75.50;;
2035;SDS011;23642;42.658;23.350;2023-03-03T06:13:04;83.53;;;77.80;;
2035;SDS011;23642;42.658;23.350;2023-03-03T06:15:31;82.93;;;77.10;;
2035;SDS011;23642;42.658;23.350;2023-03-03T06:17:57;80.90;;;75.40;;
2035;SDS011;23642;42.658;23.350;2023-03-03T06:20:24;85.10;;;78.87;;
2035;SDS011;23642;42.658;23.350;2023-03-03T06:22:51;84.30;;;78.00;;
2035;SDS011;23642;42.658;23.350;2023-03-03T06:25:19;85.43;;;79.57;;
2035;SDS011;23642;42.658;23.350;2023-03-03T06:27:46;85.50;;;79.70;;
2035;SDS011;23642;42.658;23.350;2023-03-03T06:30:13;82.03;;;76.23;;
2035;SDS011;23642;42.658;23.350;2023-03-03T06:32:40;85.87;;;79.80;;
2035;SDS011;23642;42.658;23.350;2023-03-03T06:35:07;83.40;;;77.73;;
2035;SDS011;23642;42.658;23.350;2023-03-03T06:37:35;86.17;;;80.13;;
2035;SDS011;23642;42.658;23.350;2023-03-03T06:40:02;83.33;;;77.47;;
2035;SDS011;23642;42.658;23.350;2023-03-03T06:42:32;85.30;;;79.23;;
2035;SDS011;23642;42.658;23.350;2023-03-03T06:45:02;83.60;;;78.00;;
2035;SDS011;23642;42.658;23.350;2023-03-03T06:47:28;84.30;;;78.50;;
2035;SDS011;23642;42.658;23.350;2023-03-03T06:49:56;83.80;;;77.80;;
2035;SDS011;23642;42.658;23.350;2023-03-03T06:52:23;81.47;;;75.70;;
2035;SDS011;23642;42.658;23.350;2023-03-03T06:54:52;82.93;;;77.17;;
2035;SDS011;23642;42.658;23.350;2023-03-03T06:57:22;83.57;;;78.07;;
2035;SDS011;23642;42.658;23.350;2023-03-03T06:59:53;79.93;;;74.53;;
2035;SDS011;23642;42.658;23.350;2023-03-03T07:02:22;80.47;;;75.17;;
2035;SDS011;23642;42.658;23.350;2023-03-03T07:04:49;80.63;;;75.43;;
2035;SDS011;23642;42.658;23.350;2023-03-03T07:07:17;83.13;;;77.37;;
2035;SDS011;23642;42.658;23.350;2023-03-03T07:09:46;82.20;;;76.60;;
2035;SDS011;23642;42.658;23.350;2023-03-03T07:12:15;82.80;;;77.20;;
2035;SDS011;23642;42.658;23.350;2023-03-03T07:14:44;83.47;;;77.87;;
2035;SDS011;23642;42.658;23.350;2023-03-03T07:17:18;82.57;;;77.07;;
2035;SDS011;23642;42.658;23.350;2023-03-03T07:19:46;85.37;;;79.57;;
2035;SDS011;23642;42.658;23.350;2023-03-03T07:22:15;84.10;;;78.60;;
2035;SDS011;23642;42.658;23.350;2023-03-03T07:24:44;86.77;;;80.97;;
2035;SDS011;23642;42.658;23.350;2023-03-03T07:27:13;86.23;;;80.20;;
2035;SDS011;23642;42.658;23.350;2023-03-03T07:29:48;86.87;;;80.90;;
2035;SDS011;23642;42.658;23.350;2023-03-03T07:32:30;87.67;;;81.67;;
2035;SDS011;23642;42.658;23.350;2023-03-03T07:35:25;86.17;;;80.23;;
2035;SDS011;23642;42.658;23.350;2023-03-03T07:37:56;88.27;;;82.23;;
2035;SDS011;23642;42.658;23.350;2023-03-03T07:40:30;89.33;;;83.13;;
2035;SDS011;23642;42.658;23.350;2023-03-03T07:43:13;86.50;;;80.60;;
2035;SDS011;23642;42.658;23.350;2023-03-03T07:45:53;86.57;;;80.63;;
2035;SDS011;23642;42.658;23.350;2023-03-03T07:48:25;86.43;;;80.53;;
2035;SDS011;23642;42.658;23.350;2023-03-03T07:51:01;87.40;;;81.20;;
2035;SDS011;23642;42.658;23.350;2023-03-03T07:53:30;89.10;;;83.10;;
2035;SDS011;23642;42.658;23.350;2023-03-03T07:56:02;88.47;;;82.50;;
2035;SDS011;23642;42.658;23.350;2023-03-03T07:58:40;91.17;;;85.07;;
2035;SDS011;23642;42.658;23.350;2023-03-03T08:04:09;91.97;;;85.77;;
2035;SDS011;23642;42.658;23.350;2023-03-03T08:06:45;87.43;;;81.53;;
2035;SDS011;23642;42.658;23.350;2023-03-03T08:09:26;89.87;;;83.60;;
2035;SDS011;23642;42.658;23.350;2023-03-03T08:14:57;87.77;;;81.87;;
2035;SDS011;23642;42.658;23.350;2023-03-03T08:17:40;87.30;;;81.40;;
2035;SDS011;23642;42.658;23.350;2023-03-03T08:23:09;86.00;;;80.00;;
2035;SDS011;23642;42.658;23.350;2023-03-03T08:25:37;86.03;;;80.13;;
2035;SDS011;23642;42.658;23.350;2023-03-03T08:28:04;85.57;;;79.80;;
2035;SDS011;23642;42.658;23.350;2023-03-03T08:30:31;84.93;;;79.20;;
2035;SDS011;23642;42.658;23.350;2023-03-03T08:32:58;86.67;;;80.67;;
2035;SDS011;23642;42.658;23.350;2023-03-03T08:35:26;84.73;;;78.80;;
2035;SDS011;23642;42.658;23.350;2023-03-03T08:37:55;87.17;;;81.17;;
2035;SDS011;23642;42.658;23.350;2023-03-03T08:40:27;86.17;;;80.10;;
2035;SDS011;23642;42.658;23.350;2023-03-03T08:42:56;86.77;;;80.93;;
2035;SDS011;23642;42.658;23.350;2023-03-03T08:45:23;82.13;;;76.43;;
2035;SDS011;23642;42.658;23.350;2023-03-03T08:47:50;84.00;;;78.30;;
2035;SDS011;23642;42.658;23.350;2023-03-03T08:50:17;86.17;;;80.07;;
2035;SDS011;23642;42.658;23.350;2023-03-03T08:52:50;84.27;;;78.47;;
2035;SDS011;23642;42.658;23.350;2023-03-03T08:55:19;86.40;;;79.90;;
2035;SDS011;23642;42.658;23.350;2023-03-03T08:57:46;87.67;;;81.57;;
2035;SDS011;23642;42.658;23.350;2023-03-03T09:00:14;91.20;;;84.90;;
2035;SDS011;23642;42.658;23.350;2023-03-03T09:02:41;92.33;;;85.77;;
2035;SDS011;23642;42.658;23.350;2023-03-03T09:05:09;91.47;;;85.10;;
2035;SDS011;23642;42.658;23.350;2023-03-03T09:07:36;90.00;;;83.80;;
2035;SDS011;23642;42.658;23.350;2023-03-03T09:10:04;89.90;;;83.70;;
2035;SDS011;23642;42.658;23.350;2023-03-03T09:12:34;91.20;;;85.10;;
2035;SDS011;23642;42.658;23.350;2023-03-03T09:15:10;91.80;;;85.40;;
2035;SDS011;23642;42.658;23.350;2023-03-03T09:17:42;92.43;;;85.93;;
2035;SDS011;23642;42.658;23.350;2023-03-03T09:20:16;95.13;;;88.60;;
2035;SDS011;23642;42.658;23.350;2023-03-03T09:22:49;90.23;;;84.10;;
2035;SDS011;23642;42.658;23.350;2023-03-03T09:25:18;93.37;;;86.57;;
2035;SDS011;23642;42.658;23.350;2023-03-03T09:27:50;92.60;;;86.17;;
2035;SDS011;23642;42.658;23.350;2023-03-03T09:30:26;91.70;;;85.40;;
2035;SDS011;23642;42.658;23.350;2023-03-03T09:33:00;92.60;;;86.27;;
2035;SDS011;23642;42.658;23.350;2023-03-03T09:35:42;95.83;;;89.10;;
2035;SDS011;23642;42.658;23.350;2023-03-03T09:38:16;97.90;;;91.00;;
2035;SDS011;23642;42.658;23.350;2023-03-03T09:41:02;94.60;;;88.00;;
2035;SDS011;23642;42.658;23.350;2023-03-03T09:43:42;95.90;;;89.20;;
2035;SDS011;23642;42.658;23.350;2023-03-03T09:46:19;95.93;;;89.33;;
2035;SDS011;23642;42.658;23.350;2023-03-03T09:48:55;98.40;;;91.40;;
2035;SDS011;23642;42.658;23.350;2023-03-03T09:54:35;98.63;;;91.67;;
2035;SDS011;23642;42.658;23.350;2023-03-03T09:57:11;100.27;;;93.27;;
2035;SDS011;23642;42.658;23.350;2023-03-03T09:59:48;99.37;;;92.43;;
2035;SDS011;23642;42.658;23.350;2023-03-03T10:02:34;100.50;;;93.50;;
2035;SDS011;23642;42.658;23.350;2023-03-03T10:05:15;100.90;;;93.20;;
2035;SDS011;23642;42.658;23.350;2023-03-03T10:07:54;97.40;;;90.60;;
2035;SDS011;23642;42.658;23.350;2023-03-03T10:10:32;99.70;;;92.70;;
2035;SDS011;23642;42.658;23.350;2023-03-03T10:13:17;97.60;;;90.60;;
2035;SDS011;23642;42.658;23.350;2023-03-03T10:16:04;96.30;;;89.60;;
2035;SDS011;23642;42.658;23.350;2023-03-03T10:18:43;100.13;;;92.93;;
2035;SDS011;23642;42.658;23.350;2023-03-03T10:21:18;100.40;;;93.20;;
2035;SDS011;23642;42.658;23.350;2023-03-03T10:23:53;98.33;;;91.37;;
2035;SDS011;23642;42.658;23.350;2023-03-03T10:26:25;97.87;;;90.90;;
2035;SDS011;23642;42.658;23.350;2023-03-03T10:29:08;98.20;;;91.27;;
2035;SDS011;23642;42.658;23.350;2023-03-03T10:31:48;96.97;;;90.07;;
2035;SDS011;23642;42.658;23.350;2023-03-03T10:34:34;93.13;;;86.60;;
2035;SDS011;23642;42.658;23.350;2023-03-03T10:37:16;93.83;;;87.23;;
2035;SDS011;23642;42.658;23.350;2023-03-03T10:39:51;92.10;;;85.70;;
2035;SDS011;23642;42.658;23.350;2023-03-03T10:42:46;94.27;;;87.67;;
2035;SDS011;23642;42.658;23.350;2023-03-03T10:45:30;91.37;;;84.90;;
2035;SDS011;23642;42.658;23.350;2023-03-03T10:48:21;92.00;;;85.57;;
2035;SDS011;23642;42.658;23.350;2023-03-03T10:50:57;89.83;;;83.63;;
2035;SDS011;23642;42.658;23.350;2023-03-03T10:53:33;92.00;;;85.67;;
2035;SDS011;23642;42.658;23.350;2023-03-03T10:56:13;95.03;;;88.33;;
2035;SDS011;23642;42.658;23.350;2023-03-03T10:58:50;92.67;;;86.37;;
2035;SDS011;23642;42.658;23.350;2023-03-03T11:01:28;94.70;;;88.20;;
2035;SDS011;23642;42.658;23.350;2023-03-03T11:04:15;91.73;;;85.33;;
2035;SDS011;23642;42.658;23.350;2023-03-03T11:06:53;93.17;;;86.83;;
2035;SDS011;23642;42.658;23.350;2023-03-03T11:09:33;92.90;;;86.30;;
2035;SDS011;23642;42.658;23.350;2023-03-03T11:12:13;91.33;;;85.00;;
2035;SDS011;23642;42.658;23.350;2023-03-03T11:14:53;93.97;;;87.37;;
2035;SDS011;23642;42.658;23.350;2023-03-03T11:17:37;94.03;;;87.60;;
2035;SDS011;23642;42.658;23.350;2023-03-03T11:20:20;93.07;;;86.57;;
2035;SDS011;23642;42.658;23.350;2023-03-03T11:22:56;96.37;;;89.57;;
2035;SDS011;23642;42.658;23.350;2023-03-03T11:25:31;93.07;;;86.33;;
2035;SDS011;23642;42.658;23.350;2023-03-03T11:28:15;95.87;;;88.90;;
2035;SDS011;23642;42.658;23.350;2023-03-03T11:31:08;95.03;;;88.23;;
2035;SDS011;23642;42.658;23.350;2023-03-03T11:33:44;95.47;;;88.77;;
2035;SDS011;23642;42.658;23.350;2023-03-03T11:36:19;98.93;;;91.80;;
2035;SDS011;23642;42.658;23.350;2023-03-03T11:38:53;99.07;;;91.90;;
2035;SDS011;23642;42.658;23.350;2023-03-03T11:41:25;95.73;;;89.03;;
2035;SDS011;23642;42.658;23.350;2023-03-03T11:43:58;94.73;;;88.13;;
2035;SDS011;23642;42.658;23.350;2023-03-03T11:46:33;96.20;;;89.20;;
2035;SDS011;23642;42.658;23.350;2023-03-03T11:49:06;95.20;;;88.40;;
2035;SDS011;23642;42.658;23.350;2023-03-03T11:51:43;96.90;;;89.90;;
2035;SDS011;23642;42.658;23.350;2023-03-03T11:54:17;97.87;;;90.90;;
2035;SDS011;23642;42.658;23.350;2023-03-03T11:56:48;98.93;;;91.27;;
2035;SDS011;23642;42.658;23.350;2023-03-03T11:59:34;100.53;;;93.13;;
2035;SDS011;23642;42.658;23.350;2023-03-03T12:02:30;93.83;;;87.17;;
2035;SDS011;23642;42.658;23.350;2023-03-03T12:05:12;97.27;;;90.07;;
2035;SDS011;23642;42.658;23.350;2023-03-03T12:07:51;97.87;;;90.60;;
2035;SDS011;23642;42.658;23.350;2023-03-03T12:10:27;101.27;;;93.77;;
2035;SDS011;23642;42.658;23.350;2023-03-03T12:13:02;98.80;;;91.70;;
2035;SDS011;23642;42.658;23.350;2023-03-03T12:15:32;101.63;;;94.30;;
2035;SDS011;23642;42.658;23.350;2023-03-03T12:21:08;100.13;;;92.73;;
2035;SDS011;23642;42.658;23.350;2023-03-03T12:23:49;102.53;;;94.90;;
2035;SDS011;23642;42.658;23.350;2023-03-03T12:26:27;102.17;;;94.50;;
2035;SDS011;23642;42.658;23.350;2023-03-03T12:29:10;103.07;;;95.37;;
2035;SDS011;23642;42.658;23.350;2023-03-03T12:31:46;101.20;;;93.60;;
2035;SDS011;23642;42.658;23.350;2023-03-03T12:34:21;101.53;;;94.03;;
2035;SDS011;23642;42.658;23.350;2023-03-03T12:37:09;99.53;;;91.60;;
2035;SDS011;23642;42.658;23.350;2023-03-03T12:39:46;102.13;;;94.43;;
2035;SDS011;23642;42.658;23.350;2023-03-03T12:42:24;102.20;;;94.50;;
2035;SDS011;23642;42.658;23.350;2023-03-03T12:45:05;99.90;;;92.70;;
2035;SDS011;23642;42.658;23.350;2023-03-03T12:47:49;99.70;;;92.30;;
2035;SDS011;23642;42.658;23.350;2023-03-03T12:50:26;97.50;;;90.50;;
2035;SDS011;23642;42.658;23.350;2023-03-03T12:53:01;99.77;;;92.57;;
2035;SDS011;23642;42.658;23.350;2023-03-03T12:55:39;99.80;;;92.60;;
2035;SDS011;23642;42.658;23.350;2023-03-03T12:58:15;98.43;;;91.27;;
2035;SDS011;23642;42.658;23.350;2023-03-03T13:00:53;96.13;;;89.57;;
2035;SDS011;23642;42.658;23.350;2023-03-03T13:03:33;98.47;;;91.37;;
2035;SDS011;23642;42.658;23.350;2023-03-03T13:06:06;96.07;;;89.43;;
2035;SDS011;23642;42.658;23.350;2023-03-03T13:08:49;90.80;;;84.50;;
2035;SDS011;23642;42.658;23.350;2023-03-03T13:14:22;90.93;;;84.83;;
2035;SDS011;23642;42.658;23.350;2023-03-03T13:17:02;84.43;;;78.80;;
2035;SDS011;23642;42.658;23.350;2023-03-03T13:19:41;84.57;;;78.47;;
2035;SDS011;23642;42.658;23.350;2023-03-03T13:22:12;83.37;;;77.67;;
2035;SDS011;23642;42.658;23.350;2023-03-03T13:24:52;82.63;;;76.97;;
2035;SDS011;23642;42.658;23.350;2023-03-03T13:27:26;81.23;;;75.83;;
2035;SDS011;23642;42.658;23.350;2023-03-03T13:30:03;82.50;;;76.97;;
2035;SDS011;23642;42.658;23.350;2023-03-03T13:32:41;85.27;;;79.40;;
2035;SDS011;23642;42.658;23.350;2023-03-03T13:35:15;84.33;;;78.60;;
2035;SDS011;23642;42.658;23.350;2023-03-03T13:37:51;86.77;;;80.87;;
2035;SDS011;23642;42.658;23.350;2023-03-03T13:40:21;87.10;;;81.40;;
2035;SDS011;23642;42.658;23.350;2023-03-03T13:42:54;86.90;;;80.90;;
2035;SDS011;23642;42.658;23.350;2023-03-03T13:45:27;85.03;;;79.43;;
2035;SDS011;23642;42.658;23.350;2023-03-03T13:48:07;81.70;;;76.13;;
2035;SDS011;23642;42.658;23.350;2023-03-03T13:50:51;84.80;;;79.10;;
2035;SDS011;23642;42.658;23.350;2023-03-03T13:53:27;81.13;;;75.60;;
2035;SDS011;23642;42.658;23.350;2023-03-03T13:56:08;82.37;;;76.87;;
2035;SDS011;23642;42.658;23.350;2023-03-03T13:58:50;82.63;;;76.93;;
2035;SDS011;23642;42.658;23.350;2023-03-03T14:01:21;82.80;;;76.90;;
2035;SDS011;23642;42.658;23.350;2023-03-03T14:03:56;81.67;;;75.97;;
2035;SDS011;23642;42.658;23.350;2023-03-03T14:06:28;83.83;;;78.03;;
2035;SDS011;23642;42.658;23.350;2023-03-03T14:08:59;90.60;;;84.00;;
2035;SDS011;23642;42.658;23.350;2023-03-03T14:11:45;85.30;;;79.20;;
2035;SDS011;23642;42.658;23.350;2023-03-03T14:14:32;85.83;;;79.90;;
2035;SDS011;23642;42.658;23.350;2023-03-03T14:17:11;87.60;;;81.50;;
2035;SDS011;23642;42.658;23.350;2023-03-03T14:19:44;89.27;;;83.07;;
2035;SDS011;23642;42.658;23.350;2023-03-03T14:22:17;89.17;;;82.87;;
2035;SDS011;23642;42.658;23.350;2023-03-03T14:25:02;89.60;;;83.20;;
2035;SDS011;23642;42.658;23.350;2023-03-03T14:27:33;91.47;;;84.93;;
2035;SDS011;23642;42.658;23.350;2023-03-03T14:33:20;90.23;;;83.83;;
2035;SDS011;23642;42.658;23.350;2023-03-03T14:35:59;91.07;;;84.70;;
2035;SDS011;23642;42.658;23.350;2023-03-03T14:38:40;89.80;;;83.40;;
2035;SDS011;23642;42.658;23.350;2023-03-03T14:41:12;90.63;;;84.07;;
2035;SDS011;23642;42.658;23.350;2023-03-03T14:43:42;90.40;;;84.00;;
2035;SDS011;23642;42.658;23.350;2023-03-03T14:49:06;91.67;;;85.03;;
2035;SDS011;23642;42.658;23.350;2023-03-03T14:51:41;92.27;;;85.63;;
2035;SDS011;23642;42.658;23.350;2023-03-03T14:56:57;93.90;;;87.30;;
2035;SDS011;23642;42.658;23.350;2023-03-03T14:59:32;94.43;;;87.63;;
2035;SDS011;23642;42.658;23.350;2023-03-03T15:02:11;91.33;;;84.83;;
2035;SDS011;23642;42.658;23.350;2023-03-03T15:04:52;91.50;;;85.00;;
2035;SDS011;23642;42.658;23.350;2023-03-03T15:07:39;91.77;;;85.37;;
2035;SDS011;23642;42.658;23.350;2023-03-03T15:10:06;90.83;;;84.43;;
2035;SDS011;23642;42.658;23.350;2023-03-03T15:12:36;89.03;;;82.77;;
2035;SDS011;23642;42.658;23.350;2023-03-03T15:15:07;89.73;;;83.23;;
2035;SDS011;23642;42.658;23.350;2023-03-03T15:17:52;88.57;;;82.37;;